Time;durP1;ratioP1;P1;durP2;ratioP2;P2;SDS_P1;SDS_P2;PMS_P1;PMS_P2;Temp;Humidity;BMP_temperature;BMP_pressure;BME280_temperature;BME280_humidity;BME280_pressure;Samples;Min_cycle;Max_cycle;Signal;HPM_P1;HPM_P2
2022/06/02 00:00:21;;;;;;;22.52;16.13;;;;;;;;;;4980489;28;20125;-90
2022/06/02 00:03:05;;;;;;;20.35;16.13;;;;;;;;;;4980728;28;20384;-81
2022/06/02 00:05:50;;;;;;;21.50;16.27;;;;;;;;;;5011560;28;20026;-92
2022/06/02 00:08:35;;;;;;;21.10;15.50;;;;;;;;;;4990209;28;20068;-84
2022/06/02 00:11:10;;;;;;;19.80;15.35;;;;;;;;;;5016906;28;20065;-94
2022/06/02 00:13:59;;;;;;;21.50;15.73;;;;;;;;;;5002909;28;20036;-93
2022/06/02 00:16:41;;;;;;;21.60;15.65;;;;;;;;;;4987012;28;20177;-94
2022/06/02 00:19:11;;;;;;;21.77;16.30;;;;;;;;;;4997217;28;20042;-93
2022/06/02 00:21:47;;;;;;;20.15;15.65;;;;;;;;;;4997776;28;20043;-93
2022/06/02 00:24:25;;;;;;;23.30;16.98;;;;;;;;;;4979657;28;20551;-91
2022/06/02 00:26:57;;;;;;;20.38;15.35;;;;;;;;;;4987156;28;20053;-90
2022/06/02 00:29:23;;;;;;;23.27;16.50;;;;;;;;;;5005779;28;20042;-81
2022/06/02 00:31:49;;;;;;;22.58;16.15;;;;;;;;;;4986360;28;20128;-93
2022/06/02 00:34:38;;;;;;;18.35;15.43;;;;;;;;;;4997203;28;20488;-92
2022/06/02 00:37:05;;;;;;;18.42;15.05;;;;;;;;;;4975289;28;20504;-81
2022/06/02 00:39:32;;;;;;;18.42;14.90;;;;;;;;;;4959174;28;20066;-87
2022/06/02 00:42:16;;;;;;;20.17;15.05;;;;;;;;;;4987920;28;20065;-89
2022/06/02 00:44:51;;;;;;;17.80;13.88;;;;;;;;;;4989620;28;20035;-81
2022/06/02 00:47:26;;;;;;;19.05;14.82;;;;;;;;;;4994553;28;20081;-90
2022/06/02 00:50:09;;;;;;;19.23;14.88;;;;;;;;;;4997366;28;20046;-93
2022/06/02 00:52:35;;;;;;;;;;;;;;;;;;4997127;28;20528;-93
2022/06/02 00:58:05;;;;;;;19.98;15.05;;;;;;;;;;5033663;28;20040;-90
2022/06/02 01:00:39;;;;;;;19.88;14.63;;;;;;;;;;4996420;28;20435;-90
2022/06/02 01:03:05;;;;;;;;;;;;;;;;;;4996687;28;20483;-89
2022/06/02 01:05:39;;;;;;;20.27;14.90;;;;;;;;;;5013820;28;19910;-93
2022/06/02 01:08:06;;;;;;;21.05;14.52;;;;;;;;;;5013956;28;20058;-84
2022/06/02 01:10:40;;;;;;;21.33;15.43;;;;;;;;;;5001475;28;20117;-92
2022/06/02 01:13:23;;;;;;;19.83;14.70;;;;;;;;;;4999040;28;20058;-88
2022/06/02 01:15:55;;;;;;;19.88;15.40;;;;;;;;;;5027683;28;20036;-90
2022/06/02 01:18:25;;;;;;;22.27;16.25;;;;;;;;;;5018117;28;20037;-93
2022/06/02 01:21:06;;;;;;;20.08;14.98;;;;;;;;;;5012842;28;20364;-92
2022/06/02 01:23:53;;;;;;;16.92;13.98;;;;;;;;;;5028461;28;20876;-90
2022/06/02 01:26:22;;;;;;;19.73;13.77;;;;;;;;;;5016910;28;20517;-90
2022/06/02 01:28:53;;;;;;;19.58;13.73;;;;;;;;;;5017391;28;20414;-91
2022/06/02 01:31:25;;;;;;;23.73;14.73;;;;;;;;;;5010680;28;20034;-92
2022/06/02 01:34:02;;;;;;;17.17;13.52;;;;;;;;;;5014047;28;20535;-94
2022/06/02 01:36:34;;;;;;;18.30;13.88;;;;;;;;;;5020478;28;20029;-93
2022/06/02 01:39:00;;;;;;;18.65;14.70;;;;;;;;;;5035119;28;20056;-92
2022/06/02 01:41:32;;;;;;;16.80;13.02;;;;;;;;;;5030025;28;20025;-94
2022/06/02 01:44:01;;;;;;;16.02;13.13;;;;;;;;;;5015244;28;20061;-80
2022/06/02 01:46:42;;;;;;;20.20;14.07;;;;;;;;;;5022979;28;20494;-93
2022/06/02 01:49:14;;;;;;;18.35;13.43;;;;;;;;;;5013803;28;20018;-91
2022/06/02 01:51:47;;;;;;;17.20;13.32;;;;;;;;;;5001590;28;20475;-96
2022/06/02 01:54:22;;;;;;;26.25;14.30;;;;;;;;;;5026062;28;20033;-84
2022/06/02 01:57:05;;;;;;;17.33;14.15;;;;;;;;;;5015107;28;20100;-92
2022/06/02 01:59:34;;;;;;;20.02;13.20;;;;;;;;;;5010656;28;20151;-83
2022/06/02 02:02:27;;;;;;;19.00;13.55;;;;;;;;;;5016809;28;20112;-96
2022/06/02 02:05:13;;;;;;;18.00;13.35;;;;;;;;;;4983786;28;20045;-87
2022/06/02 02:07:45;;;;;;;19.85;14.32;;;;;;;;;;5014657;28;20029;-91
2022/06/02 02:10:30;;;;;;;17.77;13.93;;;;;;;;;;5014764;28;20061;-93
2022/06/02 02:13:08;;;;;;;19.67;14.13;;;;;;;;;;4996885;28;20026;-94
2022/06/02 02:15:43;;;;;;;21.10;14.85;;;;;;;;;;5009350;28;20045;-87
2022/06/02 02:18:28;;;;;;;19.08;13.80;;;;;;;;;;5004896;28;20746;-94
2022/06/02 02:21:03;;;;;;;19.30;12.88;;;;;;;;;;5015025;28;20025;-88
2022/06/02 02:23:32;;;;;;;18.20;14.70;;;;;;;;;;5016417;28;20467;-93
2022/06/02 02:26:12;;;;;;;17.88;14.40;;;;;;;;;;5029540;28;20047;-79
2022/06/02 02:29:00;;;;;;;21.25;14.05;;;;;;;;;;5015103;28;20315;-94
2022/06/02 02:31:26;;;;;;;19.75;14.50;;;;;;;;;;5014842;28;20036;-94
2022/06/02 02:34:23;;;;;;;20.02;14.65;;;;;;;;;;5017408;28;20054;-90
2022/06/02 02:37:00;;;;;;;18.48;14.57;;;;;;;;;;5016203;28;20486;-86
2022/06/02 02:39:26;;;;;;;17.67;14.32;;;;;;;;;;5015882;28;20036;-95
2022/06/02 02:41:52;;;;;;;18.13;14.65;;;;;;;;;;5033881;28;20022;-88
2022/06/02 02:44:22;;;;;;;23.00;14.30;;;;;;;;;;5033221;28;20044;-92
2022/06/02 02:47:07;;;;;;;19.23;14.52;;;;;;;;;;5037202;28;20049;-94
2022/06/02 02:49:48;;;;;;;21.13;14.60;;;;;;;;;;4997514;28;20045;-94
2022/06/02 02:52:15;;;;;;;23.35;14.93;;;;;;;;;;5013759;28;20112;-86
2022/06/02 02:54:43;;;;;;;21.23;14.80;;;;;;;;;;4996510;28;20092;-94
2022/06/02 02:57:28;;;;;;;22.30;15.35;;;;;;;;;;5021953;28;20033;-91
2022/06/02 02:59:54;;;;;;;20.42;14.77;;;;;;;;;;5015639;28;20383;-90
2022/06/02 03:02:24;;;;;;;20.30;15.13;;;;;;;;;;5015579;28;20497;-88
2022/06/02 03:04:50;;;;;;;23.52;16.38;;;;;;;;;;5013591;28;20025;-92
2022/06/02 03:07:17;;;;;;;20.10;15.50;;;;;;;;;;5000260;28;20060;-92
2022/06/02 03:09:43;;;;;;;21.23;14.70;;;;;;;;;;5033698;28;20060;-87
2022/06/02 03:12:15;;;;;;;20.40;15.30;;;;;;;;;;5036212;28;20021;-83
2022/06/02 03:14:47;;;;;;;19.38;15.60;;;;;;;;;;5025072;28;20038;-92
2022/06/02 03:17:29;;;;;;;22.00;15.53;;;;;;;;;;4997258;28;20044;-92
2022/06/02 03:20:01;;;;;;;26.00;16.15;;;;;;;;;;5015753;28;20075;-93
2022/06/02 03:22:34;;;;;;;20.98;16.75;;;;;;;;;;5033062;28;20045;-93
2022/06/02 03:25:04;;;;;;;20.35;15.27;;;;;;;;;;5033392;28;20084;-90
2022/06/02 03:27:43;;;;;;;20.95;15.75;;;;;;;;;;4999528;28;20476;-94
2022/06/02 03:30:13;;;;;;;21.15;15.60;;;;;;;;;;5018966;28;20041;-92
2022/06/02 03:32:45;;;;;;;21.00;15.30;;;;;;;;;;5013635;28;20058;-90
2022/06/02 03:35:14;;;;;;;21.48;15.63;;;;;;;;;;5013356;28;20426;-90
2022/06/02 03:37:49;;;;;;;20.25;14.52;;;;;;;;;;5012242;28;20065;-82
2022/06/02 03:40:16;;;;;;;25.00;15.63;;;;;;;;;;5030941;28;20471;-92
2022/06/02 03:42:42;;;;;;;19.05;14.73;;;;;;;;;;5014952;28;20029;-78
2022/06/02 03:45:31;;;;;;;18.58;15.60;;;;;;;;;;5010918;28;20041;-92
2022/06/02 03:48:16;;;;;;;20.63;15.30;;;;;;;;;;4953438;29;20070;-88
2022/06/02 03:50:42;;;;;;;23.15;16.27;;;;;;;;;;4945650;29;20040;-92
2022/06/02 03:53:26;;;;;;;22.25;15.55;;;;;;;;;;4933972;29;20067;-90
2022/06/02 03:55:55;;;;;;;22.55;15.73;;;;;;;;;;4918463;29;20110;-80
2022/06/02 03:58:21;;;;;;;19.60;14.60;;;;;;;;;;4933473;28;20032;-81
2022/06/02 04:00:54;;;;;;;19.17;14.40;;;;;;;;;;4941661;29;20425;-90
2022/06/02 04:03:36;;;;;;;20.85;15.02;;;;;;;;;;4940084;29;20030;-92
2022/06/02 04:06:17;;;;;;;19.85;14.23;;;;;;;;;;4925709;29;20036;-91
2022/06/02 04:08:50;;;;;;;17.45;14.40;;;;;;;;;;4951165;28;20032;-78
2022/06/02 04:11:26;;;;;;;19.85;13.73;;;;;;;;;;4943927;28;20042;-80
2022/06/02 04:13:57;;;;;;;19.58;14.80;;;;;;;;;;4946548;29;20027;-93
2022/06/02 04:16:33;;;;;;;18.98;15.35;;;;;;;;;;4938927;29;20031;-93
2022/06/02 04:22:21;;;;;;;19.65;14.60;;;;;;;;;;4946080;29;20061;-85
2022/06/02 04:25:07;;;;;;;19.20;13.93;;;;;;;;;;4982599;28;20038;-90
2022/06/02 04:27:38;;;;;;;21.75;14.85;;;;;;;;;;5016668;28;20076;-92
2022/06/02 04:30:15;;;;;;;19.48;14.63;;;;;;;;;;5002492;28;20040;-92
2022/06/02 04:32:47;;;;;;;20.30;14.30;;;;;;;;;;5005581;28;20090;-84
2022/06/02 04:35:32;;;;;;;22.80;14.98;;;;;;;;;;5017517;28;20471;-92
2022/06/02 04:38:04;;;;;;;17.90;14.98;;;;;;;;;;5018835;28;20062;-83
2022/06/02 04:40:37;;;;;;;22.85;15.93;;;;;;;;;;4999072;28;20080;-86
2022/06/02 04:43:06;;;;;;;18.17;14.90;;;;;;;;;;5008784;28;20025;-91
2022/06/02 04:45:39;;;;;;;24.48;15.93;;;;;;;;;;5018898;28;20049;-91
2022/06/02 04:48:25;;;;;;;21.92;16.40;;;;;;;;;;5036497;28;20037;-93
2022/06/02 04:50:54;;;;;;;20.85;16.65;;;;;;;;;;5021947;28;20072;-94
2022/06/02 04:53:29;;;;;;;23.42;17.65;;;;;;;;;;5018523;28;20109;-92
2022/06/02 04:56:12;;;;;;;21.85;17.35;;;;;;;;;;5008583;28;20041;-93
2022/06/02 04:58:58;;;;;;;25.30;18.20;;;;;;;;;;5015881;28;20018;-88
2022/06/02 05:01:30;;;;;;;23.17;17.48;;;;;;;;;;4998533;28;20262;-87
2022/06/02 05:04:11;;;;;;;25.67;18.63;;;;;;;;;;5033446;28;20025;-92
2022/06/02 05:06:43;;;;;;;27.15;17.40;;;;;;;;;;5012250;28;20068;-92
2022/06/02 05:09:09;;;;;;;24.80;17.70;;;;;;;;;;5017768;28;20047;-88
2022/06/02 05:11:54;;;;;;;21.10;15.50;;;;;;;;;;5030349;28;20121;-93
2022/06/02 05:14:32;;;;;;;20.80;15.68;;;;;;;;;;5028047;28;20021;-85
2022/06/02 05:17:15;;;;;;;22.23;16.05;;;;;;;;;;5010686;28;20124;-92
2022/06/02 05:20:00;;;;;;;32.05;15.98;;;;;;;;;;5017992;28;20038;-91
2022/06/02 05:22:26;;;;;;;19.77;14.23;;;;;;;;;;4997695;28;20033;-91
2022/06/02 05:25:13;;;;;;;24.55;14.18;;;;;;;;;;5015304;28;20375;-90
2022/06/02 05:27:51;;;;;;;20.63;14.95;;;;;;;;;;5015846;28;20109;-86
2022/06/02 05:30:23;;;;;;;21.77;15.00;;;;;;;;;;4998075;28;20034;-88
2022/06/02 05:32:49;;;;;;;22.40;14.55;;;;;;;;;;5015423;28;20527;-86
2022/06/02 05:35:34;;;;;;;19.05;13.73;;;;;;;;;;5017052;28;20069;-89
2022/06/02 05:38:19;;;;;;;25.13;14.48;;;;;;;;;;5016445;28;20034;-88
2022/06/02 05:40:59;;;;;;;18.92;13.23;;;;;;;;;;5053532;28;20073;-88
2022/06/02 05:43:31;;;;;;;27.45;17.90;;;;;;;;;;5019913;28;20499;-89
2022/06/02 05:45:57;;;;;;;25.63;17.58;;;;;;;;;;5013828;28;20046;-84
2022/06/02 05:48:46;;;;;;;21.85;15.20;;;;;;;;;;5031662;28;20037;-89
2022/06/02 05:51:21;;;;;;;21.73;14.20;;;;;;;;;;5032154;28;20045;-84
2022/06/02 05:53:53;;;;;;;20.23;14.45;;;;;;;;;;5014060;28;20198;-85
2022/06/02 05:57:00;;;;;;;23.42;14.70;;;;;;;;;;5026543;28;20069;-81
2022/06/02 05:59:49;;;;;;;21.60;14.13;;;;;;;;;;4911718;29;20185;-75
2022/06/02 06:02:34;;;;;;;23.50;15.00;;;;;;;;;;4873624;29;20401;-76
2022/06/02 06:05:03;;;;;;;25.55;15.38;;;;;;;;;;4875503;29;20124;-74
2022/06/02 06:07:32;;;;;;;32.15;14.85;;;;;;;;;;4871847;29;20041;-74
2022/06/02 06:10:01;;;;;;;36.30;16.02;;;;;;;;;;4875422;29;20423;-77
2022/06/02 06:12:36;;;;;;;28.20;15.73;;;;;;;;;;4870412;29;20029;-76
2022/06/02 06:15:12;;;;;;;19.73;14.65;;;;;;;;;;4868590;29;20041;-76
2022/06/02 06:18:01;;;;;;;40.45;17.23;;;;;;;;;;4867204;29;20558;-84
2022/06/02 06:20:27;;;;;;;39.85;16.95;;;;;;;;;;4873945;29;20048;-92
2022/06/02 06:23:13;;;;;;;17.13;13.20;;;;;;;;;;4864271;29;20037;-90
2022/06/02 06:25:58;;;;;;;24.60;14.55;;;;;;;;;;4873152;29;20049;-73
2022/06/02 06:28:28;;;;;;;46.25;30.70;;;;;;;;;;4873674;29;20468;-83
2022/06/02 06:31:00;;;;;;;235.20;59.00;;;;;;;;;;4919419;28;20051;-81
2022/06/02 06:33:44;;;;;;;54.03;20.17;;;;;;;;;;4931362;29;20114;-75
2022/06/02 06:36:30;;;;;;;222.25;35.28;;;;;;;;;;4953561;28;20067;-74
2022/06/02 06:39:03;;;;;;;235.00;36.28;;;;;;;;;;4928687;28;20039;-73
2022/06/02 06:41:48;;;;;;;37.53;15.60;;;;;;;;;;4967628;28;20069;-78
2022/06/02 06:44:21;;;;;;;103.05;25.63;;;;;;;;;;4967461;28;20137;-79
2022/06/02 06:47:10;;;;;;;107.13;23.77;;;;;;;;;;4966109;28;20051;-86
2022/06/02 06:49:55;;;;;;;27.52;13.82;;;;;;;;;;4963825;28;20457;-77
2022/06/02 06:52:40;;;;;;;46.60;15.98;;;;;;;;;;4961575;28;20038;-76
2022/06/02 06:55:07;;;;;;;18.63;14.05;;;;;;;;;;4970268;28;20088;-77
2022/06/02 06:57:33;;;;;;;22.30;14.75;;;;;;;;;;4960870;28;20532;-75
2022/06/02 07:00:04;;;;;;;27.70;16.55;;;;;;;;;;4960641;28;20609;-76
2022/06/02 07:02:39;;;;;;;26.80;17.92;;;;;;;;;;4961209;28;20043;-76
2022/06/02 07:05:09;;;;;;;59.13;20.63;;;;;;;;;;4947728;28;20023;-74
2022/06/02 07:07:35;;;;;;;26.75;16.73;;;;;;;;;;4951518;28;20061;-76
2022/06/02 07:10:01;;;;;;;29.70;17.67;;;;;;;;;;4954710;28;20143;-82
2022/06/02 07:12:52;;;;;;;31.52;17.83;;;;;;;;;;4944025;28;20489;-77
2022/06/02 07:15:18;;;;;;;24.08;16.98;;;;;;;;;;4980394;28;20083;-87
2022/06/02 07:18:03;;;;;;;27.67;20.60;;;;;;;;;;5014470;28;20034;-75
2022/06/02 07:20:36;;;;;;;27.80;21.10;;;;;;;;;;5024898;28;20031;-76
2022/06/02 07:23:12;;;;;;;33.60;21.85;;;;;;;;;;5019671;28;20033;-81
2022/06/02 07:25:44;;;;;;;35.38;26.60;;;;;;;;;;5012647;28;20084;-78
2022/06/02 07:28:16;;;;;;;33.95;26.42;;;;;;;;;;5006351;28;20490;-76
2022/06/02 07:30:42;;;;;;;;;;;;;;;;;;5027043;28;20038;-77
2022/06/02 07:33:11;;;;;;;31.45;25.15;;;;;;;;;;5017917;28;19905;-76
2022/06/02 07:35:56;;;;;;;38.13;25.83;;;;;;;;;;5018483;28;20041;-76
2022/06/02 07:38:41;;;;;;;34.08;24.05;;;;;;;;;;5020095;28;20029;-76
2022/06/02 07:41:30;;;;;;;34.97;24.17;;;;;;;;;;5016955;28;20022;-75
2022/06/02 07:44:08;;;;;;;30.38;24.38;;;;;;;;;;5023517;28;20026;-76
2022/06/02 07:46:42;;;;;;;30.25;21.60;;;;;;;;;;5032751;28;20046;-75
2022/06/02 07:49:35;;;;;;;32.97;21.63;;;;;;;;;;5034927;28;20044;-80
2022/06/02 07:52:17;;;;;;;31.55;22.80;;;;;;;;;;5023916;28;20026;-85
2022/06/02 07:54:47;;;;;;;30.45;24.45;;;;;;;;;;5030322;28;20029;-85
2022/06/02 07:57:16;;;;;;;27.55;21.13;;;;;;;;;;5012010;28;20399;-79
2022/06/02 07:59:51;;;;;;;31.23;20.80;;;;;;;;;;5028637;28;20100;-79
2022/06/02 08:02:20;;;;;;;29.13;20.92;;;;;;;;;;5014516;28;20021;-76
2022/06/02 08:04:59;;;;;;;27.48;21.50;;;;;;;;;;5037038;28;20029;-74
2022/06/02 08:07:34;;;;;;;35.50;21.73;;;;;;;;;;5033428;28;20033;-76
2022/06/02 08:10:19;;;;;;;32.85;21.23;;;;;;;;;;5029867;28;20037;-74
2022/06/02 08:12:48;;;;;;;29.38;18.02;;;;;;;;;;5005958;28;20034;-82
2022/06/02 08:15:14;;;;;;;29.88;21.95;;;;;;;;;;4997814;28;20045;-82
2022/06/02 08:17:59;;;;;;;26.42;20.33;;;;;;;;;;5015509;28;20049;-82
2022/06/02 08:20:44;;;;;;;23.40;18.50;;;;;;;;;;5000690;28;20052;-83
2022/06/02 08:23:33;;;;;;;26.05;17.42;;;;;;;;;;5007371;28;20554;-81
2022/06/02 08:26:04;;;;;;;27.15;19.23;;;;;;;;;;4954827;28;20136;-82
2022/06/02 08:28:30;;;;;;;25.67;20.42;;;;;;;;;;4952887;28;20043;-82
2022/06/02 08:31:31;;;;;;;20.10;13.77;;;;;;;;;;4988467;28;20059;-82
2022/06/02 08:34:21;;;;;;;20.63;15.00;;;;;;;;;;4889962;29;20092;-81
2022/06/02 08:49:23;;;;;;;18.95;12.88;;;;;;;;;;5012271;23;20140;-86
2022/06/02 08:52:18;;;;;;;23.25;14.30;;;;;;;;;;4994810;28;20117;-87
2022/06/02 08:54:44;;;;;;;17.92;12.57;;;;;;;;;;4935243;29;20050;-87
2022/06/02 08:57:10;;;;;;;17.48;11.52;;;;;;;;;;4928754;29;20039;-88
2022/06/02 08:59:51;;;;;;;22.27;12.10;;;;;;;;;;4919251;29;20184;-88
2022/06/02 09:02:36;;;;;;;17.15;12.77;;;;;;;;;;4919379;29;20387;-87
2022/06/02 09:05:05;;;;;;;17.33;11.98;;;;;;;;;;4918829;29;20122;-86
2022/06/02 09:07:34;;;;;;;18.60;11.65;;;;;;;;;;4916303;29;20546;-87
2022/06/02 09:10:19;;;;;;;15.13;11.82;;;;;;;;;;4901698;29;20063;-85
2022/06/02 09:12:50;;;;;;;19.13;11.40;;;;;;;;;;4935352;29;20115;-87
2022/06/02 09:15:19;;;;;;;16.30;11.52;;;;;;;;;;4919217;29;20110;-86
2022/06/02 09:18:03;;;;;;;17.45;11.57;;;;;;;;;;4920543;29;20123;-87
2022/06/02 09:20:32;;;;;;;17.25;11.73;;;;;;;;;;4900631;29;20028;-87
2022/06/02 09:22:58;;;;;;;14.05;10.93;;;;;;;;;;4916801;29;20027;-88
2022/06/02 09:25:43;;;;;;;17.80;10.63;;;;;;;;;;4919083;29;20036;-87
2022/06/02 09:28:26;;;;;;;15.60;11.32;;;;;;;;;;4918562;29;20367;-86
2022/06/02 09:30:52;;;;;;;;;;;;;;;;;;4966819;28;20049;-87
2022/06/02 09:33:33;;;;;;;15.88;10.48;;;;;;;;;;4980359;28;19906;-87
2022/06/02 09:36:08;;;;;;;16.65;11.45;;;;;;;;;;4994715;28;20520;-88
2022/06/02 09:38:46;;;;;;;15.63;10.77;;;;;;;;;;4984432;28;20034;-87
2022/06/02 09:41:22;;;;;;;12.70;10.13;;;;;;;;;;4996789;28;20518;-87
2022/06/02 09:44:07;;;;;;;15.73;10.85;;;;;;;;;;4994901;28;20041;-87
2022/06/02 09:46:39;;;;;;;19.38;11.68;;;;;;;;;;4996460;28;20136;-87
2022/06/02 09:49:24;;;;;;;15.32;11.27;;;;;;;;;;4983813;28;20057;-88
2022/06/02 12:23:31;;;;;;;26.02;12.20;;;;;;;;;;3199009;23;21991;-80
2022/06/02 12:26:02;;;;;;;23.48;10.77;;;;;;;;;;5009212;28;20042;-84
2022/06/02 12:28:40;;;;;;;21.88;9.65;;;;;;;;;;5014779;28;20380;-83
2022/06/02 12:31:06;;;;;;;19.38;9.90;;;;;;;;;;5023528;28;20111;-79
2022/06/02 12:33:51;;;;;;;15.45;9.57;;;;;;;;;;5010757;28;20495;-81
2022/06/02 12:36:36;;;;;;;44.03;10.48;;;;;;;;;;5026187;28;20034;-81
2022/06/02 12:39:05;;;;;;;20.20;9.43;;;;;;;;;;5009098;28;20041;-80
2022/06/02 12:41:51;;;;;;;18.75;9.63;;;;;;;;;;5017779;28;20031;-81
2022/06/02 12:44:24;;;;;;;16.67;9.43;;;;;;;;;;5011663;28;20040;-78
2022/06/02 12:46:54;;;;;;;16.60;9.75;;;;;;;;;;5008575;28;20030;-84
2022/06/02 12:49:39;;;;;;;17.92;9.18;;;;;;;;;;5009652;28;20048;-75
2022/06/02 12:52:05;;;;;;;21.00;10.50;;;;;;;;;;5028741;28;20029;-84
2022/06/02 12:54:54;;;;;;;19.27;11.40;;;;;;;;;;5017132;28;20036;-75
2022/06/02 12:57:39;;;;;;;22.65;11.88;;;;;;;;;;5009260;28;20041;-77
2022/06/02 13:00:24;;;;;;;17.83;9.32;;;;;;;;;;5020509;28;20033;-75
2022/06/02 13:03:08;;;;;;;16.60;9.68;;;;;;;;;;5025109;28;20207;-83
2022/06/02 13:05:40;;;;;;;15.98;10.05;;;;;;;;;;5028650;28;20022;-82
2022/06/02 13:08:19;;;;;;;23.00;9.90;;;;;;;;;;5015743;28;20104;-79
2022/06/02 13:11:04;;;;;;;20.73;9.77;;;;;;;;;;5014407;28;20037;-83
2022/06/02 13:13:42;;;;;;;19.80;10.38;;;;;;;;;;5006891;28;20140;-74
2022/06/02 13:16:20;;;;;;;19.60;12.88;;;;;;;;;;5021604;28;20426;-83
2022/06/02 13:18:55;;;;;;;16.05;9.25;;;;;;;;;;5024914;28;20037;-74
2022/06/02 13:21:35;;;;;;;19.15;10.30;;;;;;;;;;5031872;28;20033;-82
2022/06/02 13:24:19;;;;;;;16.63;10.75;;;;;;;;;;5021626;28;20062;-80
2022/06/02 13:26:48;;;;;;;15.73;9.90;;;;;;;;;;5023687;28;20033;-85
2022/06/02 13:29:17;;;;;;;27.92;11.35;;;;;;;;;;5005403;28;20025;-77
2022/06/02 13:31:50;;;;;;;20.65;11.65;;;;;;;;;;5016064;28;20108;-80
2022/06/02 13:34:31;;;;;;;19.83;11.63;;;;;;;;;;5026713;28;20021;-86
2022/06/02 13:37:13;;;;;;;13.85;11.38;;;;;;;;;;5013585;28;20029;-86
2022/06/02 13:39:45;;;;;;;23.60;12.38;;;;;;;;;;5026794;28;20494;-76
2022/06/02 13:42:31;;;;;;;19.80;12.32;;;;;;;;;;5023064;28;20171;-74
2022/06/02 13:45:01;;;;;;;17.27;10.68;;;;;;;;;;5017717;28;20461;-73
2022/06/02 13:47:39;;;;;;;17.17;11.43;;;;;;;;;;5025271;28;20030;-77
2022/06/02 13:50:21;;;;;;;80.55;14.65;;;;;;;;;;5016448;28;20522;-73
2022/06/02 13:53:02;;;;;;;15.63;10.48;;;;;;;;;;5004777;28;20021;-76
2022/06/02 13:58:37;;;;;;;17.42;11.05;;;;;;;;;;5018331;28;20052;-74
2022/06/02 14:01:18;;;;;;;16.95;11.30;;;;;;;;;;5019916;28;20159;-82
2022/06/02 14:03:50;;;;;;;18.95;10.20;;;;;;;;;;5010582;28;20033;-84
2022/06/02 14:06:23;;;;;;;22.95;11.48;;;;;;;;;;5008953;28;20038;-73
2022/06/02 14:09:08;;;;;;;20.23;12.02;;;;;;;;;;5024469;28;20533;-81
2022/06/02 14:11:43;;;;;;;19.27;11.70;;;;;;;;;;5014645;28;20095;-85
2022/06/02 14:14:21;;;;;;;20.05;12.85;;;;;;;;;;5027350;28;20115;-89
2022/06/02 14:16:51;;;;;;;14.50;11.23;;;;;;;;;;5015289;28;20482;-85
2022/06/02 14:19:25;;;;;;;18.48;11.32;;;;;;;;;;5013579;28;20087;-81
2022/06/02 14:21:54;;;;;;;15.32;10.45;;;;;;;;;;5022886;28;20025;-83
2022/06/02 14:24:41;;;;;;;23.05;11.85;;;;;;;;;;5024939;28;20136;-72
2022/06/02 14:27:16;;;;;;;20.13;11.27;;;;;;;;;;5026694;28;20028;-73
2022/06/02 14:29:51;;;;;;;14.60;10.40;;;;;;;;;;5023317;28;20037;-74
2022/06/02 14:32:36;;;;;;;16.13;11.45;;;;;;;;;;5004979;28;20041;-82
2022/06/02 14:35:05;;;;;;;17.90;11.63;;;;;;;;;;5009307;28;20391;-76
2022/06/02 14:37:36;;;;;;;14.43;11.35;;;;;;;;;;5028550;28;20513;-80
2022/06/02 14:43:39;;;;;;;18.70;11.18;;;;;;;;;;4992428;28;20030;-86
2022/06/02 14:46:28;;;;;;;12.55;10.00;;;;;;;;;;4964105;28;20035;-86
2022/06/02 14:48:54;;;;;;;15.18;10.23;;;;;;;;;;4992405;28;20411;-88
2022/06/02 14:51:24;;;;;;;16.58;9.60;;;;;;;;;;4991470;28;20067;-92
2022/06/02 14:54:03;;;;;;;15.38;10.38;;;;;;;;;;4985486;28;20043;-86
2022/06/02 14:56:47;;;;;;;12.82;8.73;;;;;;;;;;4972645;28;20054;-86
2022/06/02 14:59:24;;;;;;;15.02;9.93;;;;;;;;;;4992881;28;20050;-82
2022/06/02 15:01:53;;;;;;;24.17;9.60;;;;;;;;;;4991379;28;20042;-87
2022/06/02 15:04:19;;;;;;;17.25;9.77;;;;;;;;;;4989643;28;20053;-87
2022/06/02 15:06:46;;;;;;;15.48;9.82;;;;;;;;;;4991418;28;20041;-87
2022/06/02 15:09:24;;;;;;;18.17;8.98;;;;;;;;;;4987875;28;20042;-82
2022/06/02 15:12:02;;;;;;;16.88;8.65;;;;;;;;;;4995495;28;20069;-87
2022/06/02 15:14:45;;;;;;;14.32;7.80;;;;;;;;;;4990365;28;20039;-85
2022/06/02 15:17:11;;;;;;;;;;;;;;;;;;4994804;28;20026;-87
2022/06/02 15:19:37;;;;;;;16.08;8.63;;;;;;;;;;4998087;28;19913;-89
2022/06/02 15:22:19;;;;;;;15.05;7.85;;;;;;;;;;5018190;28;20040;-87
2022/06/02 15:25:09;;;;;;;12.70;8.23;;;;;;;;;;5017291;28;20049;-85
2022/06/02 15:27:54;;;;;;;14.32;7.82;;;;;;;;;;5022306;28;20164;-89
2022/06/02 15:30:25;;;;;;;12.75;7.43;;;;;;;;;;5019301;28;20495;-85
2022/06/02 15:33:12;;;;;;;19.40;8.07;;;;;;;;;;5023693;28;20029;-87
2022/06/02 15:35:38;;;;;;;12.63;7.30;;;;;;;;;;5022480;28;20028;-82
2022/06/02 15:38:23;;;;;;;14.18;6.90;;;;;;;;;;5019462;28;20087;-83
2022/06/02 15:40:49;;;;;;;13.57;7.35;;;;;;;;;;5025492;28;20041;-81
2022/06/02 15:43:31;;;;;;;9.27;6.22;;;;;;;;;;5024599;28;20041;-82
2022/06/02 15:46:03;;;;;;;15.50;6.68;;;;;;;;;;5020317;28;20719;-81
2022/06/02 15:48:49;;;;;;;10.45;6.25;;;;;;;;;;5016902;28;20496;-84
2022/06/02 15:51:30;;;;;;;15.18;7.10;;;;;;;;;;5006873;28;20038;-82
2022/06/02 15:54:15;;;;;;;14.70;6.50;;;;;;;;;;5025302;28;20038;-81
2022/06/02 15:56:50;;;;;;;10.20;6.72;;;;;;;;;;5017513;28;20511;-83
2022/06/02 15:59:39;;;;;;;11.98;6.45;;;;;;;;;;5017360;28;20542;-80
2022/06/02 16:02:11;;;;;;;10.68;6.72;;;;;;;;;;4950699;28;20048;-85
2022/06/02 16:04:49;;;;;;;10.52;6.60;;;;;;;;;;4961261;28;20114;-78
2022/06/02 16:07:24;;;;;;;11.27;6.93;;;;;;;;;;4945063;28;20082;-79
2022/06/02 16:13:11;;;;;;;11.43;6.87;;;;;;;;;;4953890;28;20078;-83
2022/06/02 16:15:46;;;;;;;15.90;6.85;;;;;;;;;;4925566;29;20035;-79
2022/06/02 16:18:18;;;;;;;11.10;6.90;;;;;;;;;;4956637;28;20098;-82
2022/06/02 16:20:44;;;;;;;26.77;7.32;;;;;;;;;;4954773;28;20043;-77
2022/06/02 16:23:10;;;;;;;11.55;6.68;;;;;;;;;;4961799;28;20046;-78
2022/06/02 16:26:06;;;;;;;16.80;7.22;;;;;;;;;;4966075;28;20586;-84
2022/06/02 16:28:35;;;;;;;10.27;6.93;;;;;;;;;;4898129;29;20139;-88
2022/06/02 16:31:04;;;;;;;9.30;6.72;;;;;;;;;;4895450;29;20052;-82
2022/06/02 16:33:30;;;;;;;10.75;6.88;;;;;;;;;;4891168;29;20045;-89
2022/06/02 16:36:15;;;;;;;14.15;6.80;;;;;;;;;;4897227;29;20039;-83
2022/06/02 16:38:50;;;;;;;11.63;6.85;;;;;;;;;;4899062;28;20046;-78
2022/06/02 16:41:22;;;;;;;17.77;7.53;;;;;;;;;;4952980;28;20127;-76
2022/06/02 16:43:48;;;;;;;20.98;7.82;;;;;;;;;;4949667;28;20180;-92
2022/06/02 16:46:26;;;;;;;17.92;7.30;;;;;;;;;;4933853;28;20075;-89
2022/06/02 16:49:01;;;;;;;11.43;6.70;;;;;;;;;;4950221;29;20522;-86
2022/06/02 16:51:30;;;;;;;20.02;6.53;;;;;;;;;;4951384;28;20059;-90
2022/06/02 16:54:14;;;;;;;35.35;8.95;;;;;;;;;;4935901;29;20032;-90
2022/06/02 16:57:01;;;;;;;210.50;27.58;;;;;;;;;;4947013;29;20028;-86
2022/06/02 16:59:45;;;;;;;24.77;7.78;;;;;;;;;;4874513;29;20045;-87
2022/06/02 17:02:30;;;;;;;32.47;7.80;;;;;;;;;;4872122;29;20141;-83
2022/06/02 17:05:11;;;;;;;264.75;31.58;;;;;;;;;;4905046;29;20170;-82
2022/06/02 17:07:46;;;;;;;23.02;7.40;;;;;;;;;;4914101;29;20043;-86
2022/06/02 17:10:19;;;;;;;7.75;5.30;;;;;;;;;;4933965;29;20067;-78
2022/06/02 17:12:53;;;;;;;20.53;6.93;;;;;;;;;;4931119;29;20036;-79
2022/06/02 17:15:31;;;;;;;19.45;6.32;;;;;;;;;;4928598;29;20438;-74
2022/06/02 17:17:59;;;;;;;86.50;12.93;;;;;;;;;;4927297;29;20553;-80
2022/06/02 17:20:33;;;;;;;53.00;8.45;;;;;;;;;;4931659;29;20036;-80
2022/06/02 17:23:08;;;;;;;33.92;7.53;;;;;;;;;;4930121;29;20132;-90
2022/06/02 17:25:45;;;;;;;20.48;5.95;;;;;;;;;;4932061;29;20039;-81
2022/06/02 17:28:23;;;;;;;19.58;5.93;;;;;;;;;;4935291;29;20058;-91
2022/06/02 17:30:49;;;;;;;15.18;5.32;;;;;;;;;;4935544;29;20047;-89
2022/06/02 17:33:29;;;;;;;22.80;5.85;;;;;;;;;;4935277;29;20035;-86
2022/06/02 17:36:18;;;;;;;12.40;4.35;;;;;;;;;;4954345;28;20145;-90
2022/06/02 17:38:44;;;;;;;10.45;4.38;;;;;;;;;;5015545;28;20115;-90
2022/06/02 17:41:10;;;;;;;23.33;6.63;;;;;;;;;;5015688;28;20080;-90
2022/06/02 17:43:55;;;;;;;13.43;5.18;;;;;;;;;;5016491;28;20050;-91
2022/06/02 17:46:28;;;;;;;5.85;3.70;;;;;;;;;;5034346;28;20117;-91
2022/06/02 17:48:54;;;;;;;8.27;4.15;;;;;;;;;;5034815;28;20017;-88
2022/06/02 17:51:26;;;;;;;11.15;4.07;;;;;;;;;;5011160;28;20037;-90
2022/06/02 17:53:56;;;;;;;8.50;3.97;;;;;;;;;;5022076;28;20513;-90
2022/06/02 17:56:41;;;;;;;6.50;3.75;;;;;;;;;;5015512;28;20056;-87
2022/06/02 17:59:26;;;;;;;5.15;3.78;;;;;;;;;;5034093;28;20311;-86
2022/06/02 18:02:08;;;;;;;14.27;7.10;;;;;;;;;;5034354;28;20533;-84
2022/06/02 18:04:53;;;;;;;10.38;4.55;;;;;;;;;;5017393;28;20583;-88
2022/06/02 18:07:40;;;;;;;9.68;3.72;;;;;;;;;;5013044;28;20038;-92
2022/06/02 18:10:22;;;;;;;12.18;3.80;;;;;;;;;;5012985;28;20041;-90
2022/06/02 18:12:51;;;;;;;6.97;3.70;;;;;;;;;;5014304;28;20136;-85